createdAt,value
2023-02-11T00:05:08.128Z,18.13
2023-02-11T00:15:14.235Z,18.53
2023-02-11T00:25:17.453Z,19.20
2023-02-11T00:35:21.553Z,17.83
2023-02-11T00:45:24.646Z,18.77
2023-02-11T00:55:29.100Z,17.83
2023-02-11T01:05:32.463Z,17.83
2023-02-11T01:15:37.290Z,16.20
2023-02-11T01:25:40.425Z,15.17
2023-02-11T01:35:45.660Z,16.13
2023-02-11T01:46:01.631Z,15.03
2023-02-11T01:56:25.843Z,15.10
2023-02-11T02:06:34.547Z,16.97
2023-02-11T02:16:39.383Z,15.70
2023-02-11T02:27:09.594Z,15.30
2023-02-11T02:37:18.452Z,15.48
2023-02-11T02:47:21.419Z,16.03
2023-02-11T02:57:33.929Z,18.13
2023-02-11T03:07:43.965Z,17.67
2023-02-11T03:17:51.883Z,15.90
2023-02-11T03:28:02.217Z,14.60
2023-02-11T03:38:10.586Z,16.77
2023-02-11T03:48:17.148Z,15.87
2023-02-11T03:58:22.012Z,15.37
2023-02-11T04:08:25.206Z,14.77
2023-02-11T04:18:29.468Z,13.23
2023-02-11T04:28:32.560Z,13.77
2023-02-11T04:38:36.913Z,12.83
2023-02-11T04:48:39.937Z,13.07
2023-02-11T04:58:44.352Z,12.67
2023-02-11T05:08:47.580Z,14.50
2023-02-11T05:18:52.699Z,12.67
2023-02-11T05:28:55.917Z,14.93
2023-02-11T05:39:00.730Z,13.57
2023-02-11T05:49:03.932Z,14.33
2023-02-11T05:59:08.300Z,15.83
2023-02-11T06:09:14.050Z,14.40
2023-02-11T06:19:18.588Z,13.03
2023-02-11T06:29:21.998Z,14.33
2023-02-11T06:39:26.556Z,13.90
2023-02-11T06:49:29.545Z,14.20
2023-02-11T06:59:34.046Z,13.13
2023-02-11T07:09:37.144Z,12.97
2023-02-11T07:19:42.933Z,13.37
2023-02-11T07:29:46.997Z,12.07
2023-02-11T07:39:51.326Z,14.10
2023-02-11T07:49:56.576Z,11.77
2023-02-11T08:00:01.120Z,11.67
2023-02-11T08:10:13.885Z,11.33
2023-02-11T08:20:18.540Z,10.67
2023-02-11T08:30:22.137Z,12.80
2023-02-11T08:40:26.520Z,11.83
2023-02-11T08:50:30.187Z,11.20
2023-02-11T09:00:34.818Z,10.53
2023-02-11T09:10:38.605Z,10.73
2023-02-11T09:20:42.749Z,10.50
2023-02-11T09:30:45.918Z,10.27
2023-02-11T09:40:51.597Z,11.03
2023-02-11T09:50:59.367Z,10.90
2023-02-11T10:01:09.731Z,11.67
2023-02-11T10:11:31.169Z,12.50
2023-02-11T10:21:46.734Z,13.10
2023-02-11T10:31:52.643Z,12.67
2023-02-11T10:42:00.604Z,12.13
2023-02-11T10:52:19.739Z,9.63
2023-02-11T11:02:32.023Z,11.02
2023-02-11T11:12:42.165Z,14.43
2023-02-11T11:22:47.541Z,12.80
2023-02-11T11:32:51.140Z,13.03
2023-02-11T11:43:22.611Z,13.13
2023-02-11T11:53:34.574Z,13.23
2023-02-11T12:04:21.536Z,13.93
2023-02-11T12:14:36.192Z,12.80
2023-02-11T12:25:04.306Z,12.23
2023-02-11T12:35:31.667Z,13.20
2023-02-11T12:45:48.165Z,14.40
2023-02-11T12:55:58.937Z,12.60
2023-02-11T13:06:08.102Z,15.23
2023-02-11T13:16:22.031Z,16.50
2023-02-11T13:26:32.194Z,18.30
2023-02-11T13:36:36.903Z,17.07
2023-02-11T13:46:54.211Z,18.30
2023-02-11T13:57:35.898Z,16.33
2023-02-11T14:07:58.374Z,17.80
2023-02-11T14:18:04.520Z,18.27
2023-02-11T14:28:16.545Z,19.00
2023-02-11T14:38:27.796Z,18.37
2023-02-11T14:48:32.978Z,19.23
2023-02-11T14:58:37.836Z,18.80
2023-02-11T15:08:46.501Z,18.30
2023-02-11T15:18:53.061Z,18.43
2023-02-11T15:28:56.233Z,18.57
2023-02-11T15:39:20.815Z,18.70
2023-02-11T15:49:24.989Z,19.23
2023-02-11T15:59:32.788Z,19.90
2023-02-11T16:09:36.699Z,18.17
2023-02-11T16:19:47.686Z,19.17
2023-02-11T16:29:51.395Z,17.73
2023-02-11T16:39:56.244Z,22.23
2023-02-11T16:50:00.214Z,22.80
2023-02-11T17:00:06.487Z,17.73
2023-02-11T17:10:15.206Z,18.23
2023-02-11T17:20:21.215Z,13.33
2023-02-11T17:30:25.010Z,18.27
2023-02-11T17:40:29.239Z,18.63
2023-02-11T17:50:32.304Z,27.13
2023-02-11T18:00:36.510Z,21.37
2023-02-11T18:10:42.649Z,18.17
2023-02-11T18:20:56.395Z,19.27
2023-02-11T18:30:59.898Z,18.37
2023-02-11T18:41:05.284Z,20.03
2023-02-11T18:51:14.615Z,20.77
2023-02-11T19:01:22.914Z,20.73
2023-02-11T19:11:47.589Z,20.00
2023-02-11T19:21:52.179Z,20.60
2023-02-11T19:31:56.615Z,22.07
2023-02-11T19:42:00.853Z,22.10
2023-02-11T19:52:03.794Z,21.20
2023-02-11T20:02:08.146Z,19.80
2023-02-11T20:12:12.059Z,22.97
2023-02-11T20:22:18.036Z,21.17
2023-02-11T20:32:21.724Z,24.27
2023-02-11T20:42:26.457Z,22.37
2023-02-11T20:52:29.977Z,22.20
2023-02-11T21:02:34.566Z,22.10
2023-02-11T21:12:38.403Z,21.87
2023-02-11T21:22:43.072Z,23.40
2023-02-11T21:32:46.181Z,22.03
2023-02-11T21:42:50.431Z,20.40
2023-02-11T21:52:53.409Z,22.20
2023-02-11T22:02:58.064Z,22.53
2023-02-11T22:13:02.081Z,24.73
2023-02-11T22:23:06.678Z,24.27
2023-02-11T22:33:09.922Z,26.90
2023-02-11T22:43:14.233Z,26.87
2023-02-11T22:53:17.929Z,26.83
2023-02-11T23:03:22.323Z,26.87
2023-02-11T23:13:25.479Z,25.23
2023-02-11T23:23:30.131Z,27.30
2023-02-11T23:33:33.303Z,27.43
2023-02-11T23:43:37.901Z,26.83
2023-02-11T23:53:41.460Z,27.07
